createdAt,value
2017-09-14T00:00:44.727Z,0
2017-09-14T00:01:44.657Z,0
2017-09-14T00:02:44.634Z,0
2017-09-14T00:03:44.603Z,0
2017-09-14T00:04:44.587Z,0
2017-09-14T00:05:44.565Z,0
2017-09-14T00:06:44.544Z,0
2017-09-14T00:07:44.517Z,0
2017-09-14T00:08:44.501Z,0
2017-09-14T00:09:44.472Z,0
2017-09-14T00:10:44.446Z,0
2017-09-14T00:11:44.423Z,0
2017-09-14T00:12:44.413Z,0
2017-09-14T00:13:44.127Z,0
2017-09-14T00:14:44.380Z,0
2017-09-14T00:15:44.025Z,0
2017-09-14T00:16:44.305Z,0
2017-09-14T00:17:43.672Z,0
2017-09-14T00:18:44.309Z,0
2017-09-14T00:19:43.935Z,0
2017-09-14T00:20:44.224Z,0
2017-09-14T00:21:43.890Z,0
2017-09-14T00:22:44.170Z,0
2017-09-14T00:23:43.848Z,0
2017-09-14T00:24:44.130Z,0
2017-09-14T00:25:44.112Z,0
2017-09-14T00:26:44.074Z,0
2017-09-14T00:27:44.070Z,0
2017-09-14T00:28:44.032Z,0
2017-09-14T00:29:44.008Z,0
2017-09-14T00:30:44.204Z,0
2017-09-14T00:31:43.967Z,0
2017-09-14T00:32:43.948Z,0
2017-09-14T00:33:43.924Z,0
2017-09-14T00:34:43.902Z,0
2017-09-14T00:35:43.867Z,0
2017-09-14T00:36:43.860Z,0
2017-09-14T00:37:43.835Z,0
2017-09-14T00:38:43.496Z,0
2017-09-14T00:39:43.482Z,0
2017-09-14T00:40:43.757Z,0
2017-09-14T00:41:43.747Z,0
2017-09-14T00:42:43.411Z,0
2017-09-14T00:43:43.703Z,0
2017-09-14T00:44:43.664Z,0
2017-09-14T00:45:43.645Z,0
2017-09-14T00:46:43.641Z,0
2017-09-14T00:47:43.604Z,0
2017-09-14T00:48:43.272Z,0
2017-09-14T00:49:43.553Z,0
2017-09-14T00:50:43.535Z,0
2017-09-14T00:51:43.518Z,0
2017-09-14T00:52:43.491Z,0
2017-09-14T00:53:43.470Z,0
2017-09-14T00:54:43.453Z,0
2017-09-14T00:55:43.427Z,0
2017-09-14T00:56:43.093Z,0
2017-09-14T00:57:43.375Z,0
2017-09-14T00:58:43.359Z,0
2017-09-14T00:59:43.331Z,0
2017-09-14T01:00:43.304Z,0
2017-09-14T01:01:43.282Z,0
2017-09-14T01:02:43.265Z,0
2017-09-14T01:03:43.240Z,0
2017-09-14T01:04:43.218Z,0
2017-09-14T01:05:43.195Z,0
2017-09-14T01:06:43.170Z,0
2017-09-14T01:07:43.154Z,0
2017-09-14T01:08:43.127Z,0
2017-09-14T01:09:43.123Z,0
2017-09-14T01:10:43.079Z,0
2017-09-14T01:11:42.756Z,0
2017-09-14T01:12:43.033Z,0
2017-09-14T01:13:43.021Z,0
2017-09-14T01:14:42.988Z,0
2017-09-14T01:15:42.959Z,0
2017-09-14T01:16:42.941Z,0
2017-09-14T01:17:42.923Z,0
2017-09-14T01:18:42.907Z,0
2017-09-14T01:19:42.572Z,0
2017-09-14T01:20:42.854Z,0
2017-09-14T01:21:42.858Z,0
2017-09-14T01:22:42.805Z,0
2017-09-14T01:23:42.780Z,0
2017-09-14T01:24:42.762Z,0
2017-09-14T01:25:42.745Z,0
2017-09-14T01:26:42.768Z,0
2017-09-14T01:27:42.741Z,0
2017-09-14T01:28:42.679Z,0
2017-09-14T01:29:42.688Z,0
2017-09-14T01:30:42.661Z,0
2017-09-14T01:31:42.602Z,0
2017-09-14T01:32:42.589Z,0
2017-09-14T01:33:42.561Z,0
2017-09-14T01:34:42.537Z,0
2017-09-14T01:35:42.602Z,0
2017-09-14T01:36:42.498Z,0
2017-09-14T01:37:42.524Z,0
2017-09-14T01:38:42.442Z,0
2017-09-14T01:39:42.421Z,0
2017-09-14T01:40:42.407Z,0
2017-09-14T01:41:42.071Z,0
2017-09-14T01:42:42.049Z,0
2017-09-14T01:43:42.331Z,0
2017-09-14T01:44:42.306Z,0
2017-09-14T01:45:42.285Z,0
2017-09-14T01:46:42.287Z,0
2017-09-14T01:47:42.236Z,0
2017-09-14T01:48:42.227Z,0
2017-09-14T01:49:42.202Z,0
2017-09-14T01:50:42.173Z,0
2017-09-14T01:51:42.158Z,0
2017-09-14T01:52:42.137Z,0
2017-09-14T01:53:41.795Z,0
2017-09-14T01:54:42.076Z,0
2017-09-14T01:55:42.063Z,0
2017-09-14T01:56:42.053Z,0
2017-09-14T01:57:42.016Z,0
2017-09-14T01:58:41.370Z,0
2017-09-14T01:59:41.966Z,0
2017-09-14T02:00:41.948Z,0
2017-09-14T02:01:41.937Z,0
2017-09-14T02:02:41.896Z,0
2017-09-14T02:03:41.883Z,0
2017-09-14T02:04:41.858Z,0
2017-09-14T02:05:41.843Z,0
2017-09-14T02:06:41.807Z,0
2017-09-14T02:07:41.792Z,0
2017-09-14T02:08:41.769Z,0
2017-09-14T02:09:41.748Z,0
2017-09-14T02:10:41.713Z,0
2017-09-14T02:11:41.392Z,0
2017-09-14T02:12:41.667Z,0
2017-09-14T02:13:41.650Z,0
2017-09-14T02:14:41.627Z,0
2017-09-14T02:15:41.602Z,0
2017-09-14T02:16:41.583Z,0
2017-09-14T02:17:41.553Z,0
2017-09-14T02:18:41.537Z,0
2017-09-14T02:19:41.518Z,0
2017-09-14T02:20:41.500Z,0
2017-09-14T02:21:41.151Z,0
2017-09-14T02:22:41.464Z,0
2017-09-14T02:23:41.419Z,0
2017-09-14T02:24:41.448Z,0
2017-09-14T02:25:41.368Z,0
2017-09-14T02:26:41.090Z,0
2017-09-14T02:27:41.332Z,0
2017-09-14T02:28:41.342Z,0
2017-09-14T02:29:41.331Z,0
2017-09-14T02:30:40.952Z,0
2017-09-14T02:31:40.927Z,0
2017-09-14T02:32:41.203Z,0
2017-09-14T02:33:41.204Z,0
2017-09-14T02:34:41.181Z,0
2017-09-14T02:35:41.148Z,0
2017-09-14T02:36:41.123Z,0
2017-09-14T02:37:41.109Z,0
2017-09-14T02:38:41.089Z,0
2017-09-14T02:39:41.061Z,0
2017-09-14T02:40:41.031Z,0
2017-09-14T02:41:40.699Z,0
2017-09-14T02:42:40.994Z,0
2017-09-14T02:43:41.006Z,0
2017-09-14T02:44:40.942Z,0
2017-09-14T02:45:40.924Z,0
2017-09-14T02:46:40.895Z,0
2017-09-14T02:47:40.883Z,0
2017-09-14T02:48:40.854Z,0
2017-09-14T02:49:40.849Z,0
2017-09-14T02:50:40.818Z,0
2017-09-14T02:51:40.476Z,0
2017-09-14T02:52:40.757Z,0
2017-09-14T02:53:40.740Z,0
2017-09-14T02:54:40.407Z,0
2017-09-14T02:55:40.703Z,0
2017-09-14T02:56:40.664Z,0
2017-09-14T02:57:40.649Z,0
2017-09-14T02:58:40.310Z,0
2017-09-14T02:59:40.607Z,0
2017-09-14T03:00:40.579Z,0
2017-09-14T03:01:40.546Z,0
2017-09-14T03:02:40.541Z,0
2017-09-14T03:03:40.527Z,0
2017-09-14T03:04:40.491Z,0
2017-09-14T03:05:40.459Z,0
2017-09-14T03:06:40.440Z,0
2017-09-14T03:07:40.411Z,0
2017-09-14T03:08:40.394Z,0
2017-09-14T03:09:40.376Z,0
2017-09-14T03:10:40.350Z,0
2017-09-14T03:11:40.325Z,0
2017-09-14T03:12:40.307Z,0
2017-09-14T03:13:40.285Z,0
2017-09-14T03:14:40.264Z,0
2017-09-14T03:15:39.937Z,0
2017-09-14T03:16:40.256Z,0
2017-09-14T03:17:40.185Z,0
2017-09-14T03:18:40.196Z,0
2017-09-14T03:19:40.151Z,0
2017-09-14T03:20:39.807Z,0
2017-09-14T03:21:39.802Z,0
2017-09-14T03:22:39.760Z,0
2017-09-14T03:23:40.053Z,0
2017-09-14T03:24:40.026Z,0
2017-09-14T03:25:39.697Z,0
2017-09-14T03:26:39.982Z,0
2017-09-14T03:27:39.655Z,0
2017-09-14T03:28:39.999Z,0
2017-09-14T03:29:39.604Z,0
2017-09-14T03:30:39.898Z,0
2017-09-14T03:31:39.869Z,0
2017-09-14T03:32:39.536Z,0
2017-09-14T03:33:39.813Z,0
2017-09-14T03:34:39.814Z,0
2017-09-14T03:35:39.774Z,0
2017-09-14T03:36:39.754Z,0
2017-09-14T03:37:39.721Z,0
2017-09-14T03:38:39.707Z,0
2017-09-14T03:39:39.694Z,0
2017-09-14T03:40:39.669Z,0
2017-09-14T03:41:39.644Z,0
2017-09-14T03:42:39.619Z,0
2017-09-14T03:43:39.591Z,0
2017-09-14T03:44:39.572Z,0
2017-09-14T03:45:39.542Z,0
2017-09-14T03:46:39.520Z,0
2017-09-14T03:47:39.501Z,0
2017-09-14T03:48:39.511Z,0
2017-09-14T03:49:39.454Z,0
2017-09-14T03:50:39.437Z,0
2017-09-14T03:51:39.413Z,0
2017-09-14T03:52:39.386Z,0
2017-09-14T03:53:39.057Z,0
2017-09-14T03:54:39.350Z,0
2017-09-14T03:55:39.328Z,0
2017-09-14T03:56:39.349Z,0
2017-09-14T03:57:39.272Z,0
2017-09-14T03:58:39.246Z,0
2017-09-14T03:59:39.227Z,0
2017-09-14T04:00:39.269Z,0
2017-09-14T04:01:39.232Z,0
2017-09-14T04:02:39.176Z,0
2017-09-14T04:03:38.831Z,0
2017-09-14T04:04:38.869Z,0
2017-09-14T04:05:39.096Z,0
2017-09-14T04:06:39.105Z,0
2017-09-14T04:07:39.040Z,0
2017-09-14T04:08:38.811Z,0
2017-09-14T04:09:38.991Z,0
2017-09-14T04:10:38.669Z,0
2017-09-14T04:11:38.964Z,0
2017-09-14T04:12:38.930Z,0
2017-09-14T04:13:38.917Z,0
2017-09-14T04:14:38.903Z,0
2017-09-14T04:15:38.866Z,0
2017-09-14T04:16:38.845Z,0
2017-09-14T04:17:38.821Z,0
2017-09-14T04:18:38.794Z,0
2017-09-14T04:19:38.830Z,0
2017-09-14T04:20:38.757Z,0
2017-09-14T04:21:38.729Z,0
2017-09-14T04:22:38.706Z,0
2017-09-14T04:23:38.684Z,0
2017-09-14T04:24:38.697Z,0
2017-09-14T04:25:38.746Z,0
2017-09-14T04:26:38.304Z,0
2017-09-14T04:27:38.584Z,0
2017-09-14T04:28:38.568Z,0
2017-09-14T04:29:38.239Z,0
2017-09-14T04:30:38.532Z,0
2017-09-14T04:31:38.500Z,0
2017-09-14T04:32:38.479Z,0
2017-09-14T04:33:38.455Z,0
2017-09-14T04:34:38.439Z,0
2017-09-14T04:35:38.213Z,0
2017-09-14T04:36:38.386Z,0
2017-09-14T04:37:38.366Z,0
2017-09-14T04:38:38.346Z,0
2017-09-14T04:39:38.327Z,0
2017-09-14T04:40:38.297Z,0
2017-09-14T04:41:38.280Z,0
2017-09-14T04:42:38.217Z,0
2017-09-14T04:43:38.226Z,0
2017-09-14T04:44:37.895Z,0
2017-09-14T04:45:38.185Z,0
2017-09-14T04:46:37.846Z,0
2017-09-14T04:47:38.141Z,0
2017-09-14T04:48:38.120Z,0
2017-09-14T04:49:37.777Z,0
2017-09-14T04:50:38.069Z,0
2017-09-14T04:51:37.726Z,0
2017-09-14T04:52:38.014Z,0
2017-09-14T04:53:37.686Z,0
2017-09-14T04:54:37.980Z,0
2017-09-14T04:55:37.949Z,5
2017-09-14T04:56:38.037Z,5
2017-09-14T04:57:37.897Z,5
2017-09-14T04:58:37.876Z,5
2017-09-14T04:59:37.877Z,5
2017-09-14T05:00:37.858Z,5
2017-09-14T05:01:37.804Z,5
2017-09-14T05:02:37.801Z,5
2017-09-14T05:03:37.810Z,10
2017-09-14T05:04:37.732Z,10
2017-09-14T05:05:37.722Z,10
2017-09-14T05:06:37.702Z,10
2017-09-14T05:07:37.681Z,10
2017-09-14T05:08:37.703Z,10
2017-09-14T05:09:37.626Z,15
2017-09-14T05:10:37.597Z,15
2017-09-14T05:11:37.582Z,15
2017-09-14T05:12:37.558Z,15
2017-09-14T05:13:37.565Z,15
2017-09-14T05:14:37.625Z,15
2017-09-14T05:15:37.177Z,15
2017-09-14T05:16:37.462Z,15
2017-09-14T05:17:37.447Z,20
2017-09-14T05:18:37.467Z,20
2017-09-14T05:19:37.394Z,20
2017-09-14T05:20:37.375Z,25
2017-09-14T05:21:37.351Z,30
2017-09-14T05:22:37.037Z,30
2017-09-14T05:23:37.316Z,35
2017-09-14T05:24:37.308Z,35
2017-09-14T05:25:37.263Z,40
2017-09-14T05:26:37.244Z,40
2017-09-14T05:27:37.222Z,45
2017-09-14T05:28:37.203Z,50
2017-09-14T05:29:37.207Z,55
2017-09-14T05:30:37.161Z,60
2017-09-14T05:31:37.124Z,70
2017-09-14T05:32:37.105Z,75
2017-09-14T05:33:37.089Z,75
2017-09-14T05:34:37.064Z,80
2017-09-14T05:35:37.037Z,85
2017-09-14T05:36:37.019Z,100
2017-09-14T05:37:37.008Z,105
2017-09-14T05:38:36.660Z,110
2017-09-14T05:39:36.946Z,125
2017-09-14T05:40:36.923Z,135
2017-09-14T05:41:36.900Z,145
2017-09-14T05:42:36.882Z,135
2017-09-14T05:43:36.863Z,135
2017-09-14T05:44:36.824Z,140
2017-09-14T05:45:36.504Z,140
2017-09-14T05:46:36.805Z,140
2017-09-14T05:47:36.766Z,135
2017-09-14T05:48:36.753Z,145
2017-09-14T05:49:36.716Z,120
2017-09-14T05:50:36.700Z,130
2017-09-14T05:51:36.675Z,115
2017-09-14T05:52:36.660Z,95
2017-09-14T05:53:36.630Z,85
2017-09-14T05:54:36.610Z,80
2017-09-14T05:55:36.582Z,80
2017-09-14T05:56:36.579Z,80
2017-09-14T05:57:36.584Z,75
2017-09-14T05:58:36.523Z,75
2017-09-14T05:59:36.189Z,70
2017-09-14T06:00:36.482Z,65
2017-09-14T06:01:36.144Z,55
2017-09-14T06:02:36.450Z,55
2017-09-14T06:03:36.411Z,45
2017-09-14T06:04:36.380Z,45
2017-09-14T06:05:36.401Z,40
2017-09-14T06:06:36.341Z,40
2017-09-14T06:07:36.320Z,40
2017-09-14T06:08:36.305Z,40
2017-09-14T06:09:36.271Z,40
2017-09-14T06:10:36.257Z,50
2017-09-14T06:11:36.225Z,55
2017-09-14T06:12:36.222Z,65
2017-09-14T06:13:36.232Z,65
2017-09-14T06:14:36.161Z,65
2017-09-14T06:15:36.126Z,65
2017-09-14T06:16:36.179Z,65
2017-09-14T06:17:36.105Z,60
2017-09-14T06:18:35.765Z,60
2017-09-14T06:19:36.053Z,70
2017-09-14T06:20:36.032Z,70
2017-09-14T06:21:36.004Z,75
2017-09-14T06:22:36.005Z,85
2017-09-14T06:23:35.962Z,95
2017-09-14T06:24:35.935Z,100
2017-09-14T06:25:35.926Z,120
2017-09-14T06:26:35.899Z,135
2017-09-14T06:27:35.872Z,155
2017-09-14T06:28:35.869Z,160
2017-09-14T06:29:35.888Z,160
2017-09-14T06:30:35.809Z,170
2017-09-14T06:31:35.833Z,180
2017-09-14T06:32:35.769Z,205
2017-09-14T06:33:35.799Z,220
2017-09-14T06:34:35.414Z,220
2017-09-14T06:35:35.380Z,200
2017-09-14T06:36:35.364Z,150
2017-09-14T06:37:35.342Z,125
2017-09-14T06:38:35.626Z,115
2017-09-14T06:39:35.613Z,105
2017-09-14T06:40:35.651Z,115
2017-09-14T06:41:35.569Z,120
2017-09-14T06:42:35.586Z,125
2017-09-14T06:43:35.522Z,135
2017-09-14T06:44:35.513Z,140
2017-09-14T06:45:35.476Z,165
2017-09-14T06:46:35.463Z,180
2017-09-14T06:47:35.433Z,185
2017-09-14T06:48:35.118Z,175
2017-09-14T06:49:35.381Z,160
2017-09-14T06:50:35.060Z,145
2017-09-14T06:51:35.342Z,130
2017-09-14T06:52:35.325Z,125
2017-09-14T06:53:35.300Z,135
2017-09-14T06:54:35.279Z,125
2017-09-14T06:55:35.252Z,140
2017-09-14T06:56:34.928Z,150
2017-09-14T06:57:35.203Z,155
2017-09-14T06:58:35.264Z,175
2017-09-14T06:59:34.859Z,185
2017-09-14T07:00:35.156Z,170
2017-09-14T07:01:35.140Z,170
2017-09-14T07:02:35.100Z,155
2017-09-14T07:03:34.778Z,130
2017-09-14T07:04:35.060Z,130
2017-09-14T07:05:35.029Z,140
2017-09-14T07:06:35.016Z,155
2017-09-14T07:07:34.987Z,160
2017-09-14T07:08:34.971Z,145
2017-09-14T07:09:34.941Z,115
2017-09-14T07:10:34.919Z,140
2017-09-14T07:11:34.946Z,125
2017-09-14T07:12:34.895Z,120
2017-09-14T07:13:34.864Z,95
2017-09-14T07:14:34.869Z,110
2017-09-14T07:15:34.828Z,115
2017-09-14T07:16:34.800Z,120
2017-09-14T07:17:34.472Z,105
2017-09-14T07:18:34.741Z,100
2017-09-14T07:19:34.418Z,85
2017-09-14T07:20:34.712Z,90
2017-09-14T07:21:34.685Z,105
2017-09-14T07:22:34.657Z,95
2017-09-14T07:23:34.332Z,75
2017-09-14T07:24:34.616Z,65
2017-09-14T07:25:34.607Z,70
2017-09-14T07:26:34.630Z,80
2017-09-14T07:27:34.555Z,75
2017-09-14T07:28:34.220Z,70
2017-09-14T07:29:34.508Z,70
2017-09-14T07:30:34.177Z,65
2017-09-14T07:31:34.466Z,65
2017-09-14T07:32:34.587Z,65
2017-09-14T07:33:34.407Z,65
2017-09-14T07:34:34.085Z,65
2017-09-14T07:35:34.385Z,60
2017-09-14T07:36:34.358Z,55
2017-09-14T07:37:34.328Z,50
2017-09-14T07:38:34.317Z,45
2017-09-14T07:39:34.285Z,50
2017-09-14T07:40:33.667Z,50
2017-09-14T07:41:33.936Z,50
2017-09-14T07:42:34.227Z,50
2017-09-14T07:43:33.889Z,45
2017-09-14T07:44:34.178Z,45
2017-09-14T07:45:34.149Z,45
2017-09-14T07:46:34.133Z,50
2017-09-14T07:47:33.814Z,50
2017-09-14T07:48:34.113Z,50
2017-09-14T07:49:34.072Z,55
2017-09-14T07:50:34.039Z,60
2017-09-14T07:51:34.015Z,65
2017-09-14T07:52:34.012Z,70
2017-09-14T07:53:33.966Z,75
2017-09-14T07:54:33.638Z,80
2017-09-14T07:55:33.919Z,85
2017-09-14T07:56:33.898Z,105
2017-09-14T07:57:33.884Z,115
2017-09-14T07:58:33.849Z,115
2017-09-14T07:59:33.826Z,115
2017-09-14T08:00:33.813Z,110
2017-09-14T08:01:33.784Z,110
2017-09-14T08:02:33.772Z,105
2017-09-14T08:03:33.790Z,105
2017-09-14T08:04:33.716Z,110
2017-09-14T08:05:33.430Z,120
2017-09-14T08:06:33.717Z,135
2017-09-14T08:07:33.656Z,160
2017-09-14T08:08:33.317Z,180
2017-09-14T08:09:33.651Z,185
2017-09-14T08:10:33.596Z,190
2017-09-14T08:11:33.566Z,200
2017-09-14T08:12:33.537Z,225
2017-09-14T08:13:33.245Z,240
2017-09-14T08:14:33.510Z,260
2017-09-14T08:15:33.174Z,270
2017-09-14T08:16:33.451Z,270
2017-09-14T08:17:33.442Z,260
2017-09-14T08:18:33.411Z,250
2017-09-14T08:19:33.384Z,250
2017-09-14T08:20:33.364Z,245
2017-09-14T08:21:33.335Z,235
2017-09-14T08:22:33.012Z,220
2017-09-14T08:23:33.289Z,185
2017-09-14T08:24:32.958Z,150
2017-09-14T08:25:33.238Z,130
2017-09-14T08:26:33.231Z,135
2017-09-14T08:27:33.202Z,135
2017-09-14T08:28:33.174Z,175
2017-09-14T08:29:32.866Z,215
2017-09-14T08:30:32.873Z,220
2017-09-14T08:31:33.109Z,210
2017-09-14T08:32:32.786Z,200
2017-09-14T08:33:32.757Z,195
2017-09-14T08:34:33.055Z,185
2017-09-14T08:35:33.024Z,180
2017-09-14T08:36:32.991Z,170
2017-09-14T08:37:32.966Z,175
2017-09-14T08:38:32.951Z,170
2017-09-14T08:39:32.614Z,160
2017-09-14T08:40:32.904Z,145
2017-09-14T08:41:32.894Z,135
2017-09-14T08:42:32.862Z,130
2017-09-14T08:43:32.845Z,120
2017-09-14T08:44:32.839Z,120
2017-09-14T08:45:32.488Z,120
2017-09-14T08:46:32.777Z,130
2017-09-14T08:47:32.798Z,145
2017-09-14T08:48:32.728Z,150
2017-09-14T08:49:32.712Z,155
2017-09-14T08:50:32.690Z,155
2017-09-14T08:51:32.656Z,145
2017-09-14T08:52:32.331Z,125
2017-09-14T08:53:32.629Z,110
2017-09-14T08:54:32.591Z,95
2017-09-14T08:55:32.576Z,85
2017-09-14T08:56:32.544Z,85
2017-09-14T08:57:32.225Z,90
2017-09-14T08:58:32.496Z,90
2017-09-14T08:59:32.177Z,105
2017-09-14T09:00:32.460Z,120
2017-09-14T09:01:32.121Z,140
2017-09-14T09:02:32.421Z,160
2017-09-14T09:03:32.080Z,180
2017-09-14T09:04:32.357Z,180
2017-09-14T09:05:32.346Z,170
2017-09-14T09:06:32.321Z,140
2017-09-14T09:07:32.345Z,120
2017-09-14T09:08:32.283Z,110
2017-09-14T09:09:32.271Z,105
2017-09-14T09:10:32.238Z,105
2017-09-14T09:11:32.207Z,100
2017-09-14T09:12:32.189Z,100
2017-09-14T09:13:32.202Z,100
2017-09-14T09:14:32.161Z,105
2017-09-14T09:15:31.509Z,100
2017-09-14T09:16:32.154Z,90
2017-09-14T09:17:31.461Z,85
2017-09-14T09:18:31.758Z,90
2017-09-14T09:19:32.027Z,100
2017-09-14T09:20:32.007Z,120
2017-09-14T09:21:31.667Z,150
2017-09-14T09:22:31.660Z,175
2017-09-14T09:23:31.942Z,180
2017-09-14T09:24:31.924Z,175
2017-09-14T09:25:31.910Z,150
2017-09-14T09:26:31.857Z,135
2017-09-14T09:27:31.872Z,140
2017-09-14T09:28:31.827Z,145
2017-09-14T09:29:31.798Z,150
2017-09-14T09:30:31.774Z,150
2017-09-14T09:31:31.154Z,155
2017-09-14T09:32:31.734Z,175
2017-09-14T09:33:31.731Z,215
2017-09-14T09:34:31.692Z,255
2017-09-14T09:35:31.349Z,270
2017-09-14T09:36:31.674Z,280
2017-09-14T09:37:31.312Z,305
2017-09-14T09:38:31.599Z,345
2017-09-14T09:39:31.581Z,360
2017-09-14T09:40:31.559Z,370
2017-09-14T09:41:31.542Z,365
2017-09-14T09:42:31.512Z,335
2017-09-14T09:43:31.488Z,295
2017-09-14T09:44:31.460Z,260
2017-09-14T09:45:31.435Z,275
2017-09-14T09:46:31.424Z,305
2017-09-14T09:47:31.093Z,345
2017-09-14T09:48:30.759Z,380
2017-09-14T09:49:32.882Z,625
2017-09-14T09:50:33.040Z,935
2017-09-14T09:51:32.601Z,810
2017-09-14T09:52:32.915Z,1015
2017-09-14T09:53:32.903Z,680
2017-09-14T09:54:33.004Z,650
2017-09-14T09:55:32.518Z,585
2017-09-14T09:56:32.710Z,500
2017-09-14T09:57:32.542Z,505
2017-09-14T09:58:32.216Z,1365
2017-09-14T09:59:32.800Z,640
2017-09-14T10:00:32.176Z,570
2017-09-14T10:01:32.566Z,680
2017-09-14T10:02:31.720Z,495
2017-09-14T10:03:32.065Z,585
2017-09-14T10:04:31.031Z,915
2017-09-14T10:05:31.005Z,640
2017-09-14T10:06:30.994Z,600
2017-09-14T10:07:30.976Z,595
2017-09-14T10:08:30.939Z,485
2017-09-14T10:09:30.920Z,410
2017-09-14T10:10:30.904Z,400
2017-09-14T10:11:30.892Z,310
2017-09-14T10:12:30.554Z,265
2017-09-14T10:13:30.861Z,240
2017-09-14T10:14:30.566Z,230
2017-09-14T10:15:30.498Z,225
2017-09-14T10:16:30.781Z,215
2017-09-14T10:17:30.769Z,210
2017-09-14T10:18:30.455Z,210
2017-09-14T10:19:30.432Z,205
2017-09-14T10:20:30.692Z,205
2017-09-14T10:21:30.361Z,195
2017-09-14T10:22:30.662Z,200
2017-09-14T10:23:30.696Z,195
2017-09-14T10:24:30.628Z,200
2017-09-14T10:25:30.282Z,195
2017-09-14T10:26:29.665Z,195
2017-09-14T10:27:30.552Z,190
2017-09-14T10:28:30.531Z,190
2017-09-14T10:29:30.505Z,195
2017-09-14T10:30:30.494Z,190
2017-09-14T10:31:30.166Z,190
2017-09-14T10:32:30.146Z,205
2017-09-14T10:33:29.820Z,205
2017-09-14T10:34:30.410Z,190
2017-09-14T10:35:30.385Z,195
2017-09-14T10:36:30.365Z,195
2017-09-14T10:37:30.043Z,220
2017-09-14T10:38:30.011Z,275
2017-09-14T10:39:30.002Z,460
2017-09-14T10:40:30.288Z,460
2017-09-14T10:41:30.248Z,405
2017-09-14T10:42:29.931Z,295
2017-09-14T10:43:30.258Z,240
2017-09-14T10:44:29.899Z,235
2017-09-14T10:45:30.163Z,215
2017-09-14T10:46:29.848Z,250
2017-09-14T10:47:30.128Z,270
2017-09-14T10:48:30.094Z,220
2017-09-14T10:49:30.093Z,210
2017-09-14T10:50:30.062Z,215
2017-09-14T10:51:30.051Z,250
2017-09-14T10:52:29.718Z,195
2017-09-14T10:53:29.999Z,195
2017-09-14T10:54:29.682Z,200
2017-09-14T10:55:29.952Z,250
2017-09-14T10:56:29.693Z,200
2017-09-14T10:57:29.349Z,190
2017-09-14T10:58:29.942Z,350
2017-09-14T10:59:29.866Z,260
2017-09-14T11:00:29.615Z,265
2017-09-14T11:01:29.516Z,210
2017-09-14T11:02:29.505Z,245
2017-09-14T11:03:29.781Z,270
2017-09-14T11:04:29.455Z,290
2017-09-14T11:05:29.460Z,255
2017-09-14T11:06:29.418Z,425
2017-09-14T11:07:29.709Z,435
2017-09-14T11:08:29.684Z,400
2017-09-14T11:09:29.348Z,325
2017-09-14T11:10:29.347Z,310
2017-09-14T11:11:29.604Z,380
2017-09-14T11:12:28.680Z,310
2017-09-14T11:13:29.567Z,400
2017-09-14T11:14:29.557Z,325
2017-09-14T11:15:28.920Z,475
2017-09-14T11:16:28.894Z,425
2017-09-14T11:17:29.484Z,430
2017-09-14T11:18:28.908Z,365
2017-09-14T11:19:28.835Z,435
2017-09-14T11:20:29.123Z,345
2017-09-14T11:21:29.104Z,260
2017-09-14T11:22:28.165Z,230
2017-09-14T11:23:29.352Z,210
2017-09-14T11:24:28.733Z,290
2017-09-14T11:25:28.713Z,325
2017-09-14T11:26:28.398Z,325
2017-09-14T11:27:28.375Z,380
2017-09-14T11:28:28.658Z,365
2017-09-14T11:29:28.318Z,485
2017-09-14T11:30:28.619Z,315
2017-09-14T11:31:28.262Z,265
2017-09-14T11:32:28.256Z,260
2017-09-14T11:33:28.559Z,270
2017-09-14T11:34:28.856Z,280
2017-09-14T11:35:28.527Z,410
2017-09-14T11:36:28.792Z,405
2017-09-14T11:37:29.076Z,310
2017-09-14T11:38:28.733Z,275
2017-09-14T11:39:28.706Z,270
2017-09-14T11:40:29.011Z,290
2017-09-14T11:41:28.980Z,350
2017-09-14T11:42:28.655Z,315
2017-09-14T11:43:28.936Z,280
2017-09-14T11:44:28.906Z,305
2017-09-14T11:45:28.587Z,360
2017-09-14T11:46:28.568Z,385
2017-09-14T11:47:28.848Z,400
2017-09-14T11:48:28.832Z,395
2017-09-14T11:49:28.828Z,400
2017-09-14T11:50:28.793Z,455
2017-09-14T11:51:28.768Z,475
2017-09-14T11:52:28.138Z,355
2017-09-14T11:53:28.733Z,400
2017-09-14T11:54:28.731Z,445
2017-09-14T11:55:28.696Z,385
2017-09-14T11:56:28.687Z,270
2017-09-14T11:57:28.340Z,240
2017-09-14T11:58:28.702Z,275
2017-09-14T11:59:28.292Z,195
2017-09-14T12:00:28.272Z,170
2017-09-14T12:01:28.559Z,165
2017-09-14T12:02:28.546Z,170
2017-09-14T12:03:28.517Z,190
2017-09-14T12:04:28.502Z,185
2017-09-14T12:05:28.171Z,240
2017-09-14T12:06:28.455Z,345
2017-09-14T12:07:28.442Z,445
2017-09-14T12:08:28.412Z,400
2017-09-14T12:09:28.383Z,350
2017-09-14T12:10:28.391Z,495
2017-09-14T12:11:28.391Z,505
2017-09-14T12:12:28.345Z,430
2017-09-14T12:13:28.299Z,420
2017-09-14T12:14:28.286Z,450
2017-09-14T12:15:28.262Z,545
2017-09-14T12:16:28.248Z,535
2017-09-14T12:17:28.225Z,500
2017-09-14T12:18:28.211Z,485
2017-09-14T12:19:28.180Z,520
2017-09-14T12:20:28.159Z,515
2017-09-14T12:21:28.146Z,450
2017-09-14T12:22:28.128Z,455
2017-09-14T12:23:28.143Z,450
2017-09-14T12:24:28.073Z,410
2017-09-14T12:25:28.108Z,415
2017-09-14T12:26:28.043Z,300
2017-09-14T12:27:28.010Z,235
2017-09-14T12:28:28.014Z,285
2017-09-14T12:29:27.663Z,405
2017-09-14T12:30:27.960Z,505
2017-09-14T12:31:27.933Z,510
2017-09-14T12:32:27.914Z,515
2017-09-14T12:33:27.912Z,485
2017-09-14T12:34:27.876Z,440
2017-09-14T12:35:27.542Z,320
2017-09-14T12:36:27.523Z,330
2017-09-14T12:37:27.820Z,360
2017-09-14T12:38:27.793Z,450
2017-09-14T12:39:27.781Z,465
2017-09-14T12:40:27.748Z,475
2017-09-14T12:41:27.733Z,450
2017-09-14T12:42:27.714Z,485
2017-09-14T12:43:27.685Z,465
2017-09-14T12:44:27.685Z,470
2017-09-14T12:45:27.708Z,445
2017-09-14T12:46:27.663Z,325
2017-09-14T12:47:27.610Z,240
2017-09-14T12:48:27.593Z,185
2017-09-14T12:49:27.321Z,165
2017-09-14T12:50:27.274Z,240
2017-09-14T12:51:27.533Z,355
2017-09-14T12:52:27.504Z,415
2017-09-14T12:53:27.561Z,410
2017-09-14T12:54:27.478Z,385
2017-09-14T12:55:27.147Z,410
2017-09-14T12:56:27.109Z,390
2017-09-14T12:57:27.093Z,355
2017-09-14T12:58:27.390Z,325
2017-09-14T12:59:27.061Z,285
2017-09-14T13:00:27.351Z,235
2017-09-14T13:01:26.702Z,230
2017-09-14T13:02:26.993Z,180
2017-09-14T13:03:27.278Z,145
2017-09-14T13:04:27.257Z,105
2017-09-14T13:05:27.252Z,95
2017-09-14T13:06:27.226Z,130
2017-09-14T13:07:27.197Z,310
2017-09-14T13:08:27.217Z,405
2017-09-14T13:09:27.205Z,440
2017-09-14T13:10:27.138Z,465
2017-09-14T13:11:27.109Z,455
2017-09-14T13:12:26.786Z,455
2017-09-14T13:13:27.104Z,375
2017-09-14T13:14:26.757Z,425
2017-09-14T13:15:26.742Z,405
2017-09-14T13:16:27.022Z,410
2017-09-14T13:17:27.007Z,360
2017-09-14T13:18:26.660Z,345
2017-09-14T13:19:26.997Z,305
2017-09-14T13:20:26.936Z,350
2017-09-14T13:21:26.911Z,345
2017-09-14T13:22:26.907Z,345
2017-09-14T13:23:26.864Z,325
2017-09-14T13:24:26.842Z,320
2017-09-14T13:25:26.824Z,255
2017-09-14T13:26:26.495Z,225
2017-09-14T13:27:26.773Z,210
2017-09-14T13:28:26.817Z,180
2017-09-14T13:29:26.740Z,180
2017-09-14T13:30:26.722Z,130
2017-09-14T13:31:26.438Z,105
2017-09-14T13:32:26.677Z,100
2017-09-14T13:33:26.666Z,105
2017-09-14T13:34:26.662Z,95
2017-09-14T13:35:26.628Z,105
2017-09-14T13:36:26.299Z,120
2017-09-14T13:37:26.295Z,90
2017-09-14T13:38:26.620Z,80
2017-09-14T13:39:26.542Z,85
2017-09-14T13:40:26.519Z,95
2017-09-14T13:41:25.885Z,85
2017-09-14T13:42:25.866Z,60
2017-09-14T13:43:26.464Z,50
2017-09-14T13:44:26.417Z,40
2017-09-14T13:45:26.101Z,30
2017-09-14T13:46:25.776Z,25
2017-09-14T13:47:25.755Z,20
2017-09-14T13:48:25.735Z,25
2017-09-14T13:49:26.028Z,30
2017-09-14T13:50:25.987Z,30
2017-09-14T13:51:25.666Z,50
2017-09-14T13:52:26.261Z,60
2017-09-14T13:53:26.234Z,60
2017-09-14T13:54:25.969Z,85
2017-09-14T13:55:25.880Z,115
2017-09-14T13:56:25.858Z,120
2017-09-14T13:57:26.184Z,100
2017-09-14T13:58:26.123Z,60
2017-09-14T13:59:25.840Z,60
2017-09-14T14:00:26.082Z,65
2017-09-14T14:01:26.069Z,80
2017-09-14T14:02:26.045Z,115
2017-09-14T14:03:26.017Z,135
2017-09-14T14:04:26.013Z,125
2017-09-14T14:05:25.374Z,120
2017-09-14T14:06:25.648Z,125
2017-09-14T14:07:25.936Z,115
2017-09-14T14:08:25.601Z,80
2017-09-14T14:09:25.617Z,95
2017-09-14T14:10:25.853Z,105
2017-09-14T14:11:25.835Z,95